Wetterdaten: Woche 02.05.16 - 08.05.16 (KW18)
Datum Zeit Temp. Aussen Temp. o. S. +5cm Feuchte Auss BlattFeu 1 Luftdruck Regen Sonnenschein Regendauer Solar Windben Empfang
02.05.2016 00:00 6,6 C 5,0 C 4,1 C 84 % 0 lf 1026,4 hPa 0,0 l/m 0,00 h 0,00 h 0 W/m 0,0 km/h (0 Bft) 95,97 %
02.05.2016 01:00 5,8 C 4,4 C 3,5 C 86 % 0 lf 1026,1 hPa 0,0 l/m 0,00 h 0,00 h 0 W/m 0,0 km/h (0 Bft) 96,02 %
02.05.2016 02:00 5,0 C 3,6 C 3,0 C 87 % 1 lf 1025,8 hPa 0,0 l/m 0,00 h 0,00 h 0 W/m 0,0 km/h (0 Bft) 96,70 %
02.05.2016 03:00 4,3 C 3,1 C 2,6 C 88 % 2 lf 1025,6 hPa 0,0 l/m 0,00 h 0,00 h 0 W/m 0,0 km/h (0 Bft) 98,43 %
02.05.2016 04:00 3,8 C 2,7 C 2,2 C 89 % 5 lf 1025,4 hPa 0,0 l/m 0,00 h 0,00 h 0 W/m 0,0 km/h (0 Bft) 94,39 %
02.05.2016 05:00 3,4 C 2,3 C 1,9 C 90 % 13 lf 1025,2 hPa 0,0 l/m 0,00 h 0,00 h 1 W/m 0,0 km/h (0 Bft) 95,37 %
02.05.2016 06:00 3,1 C 2,5 C 1,9 C 91 % 15 lf 1025,1 hPa 0,0 l/m 0,27 h 0,00 h 29 W/m 1,1 km/h (1 Bft) 96,29 %
02.05.2016 07:00 3,4 C 4,3 C 3,3 C 93 % 15 lf 1025,1 hPa 0,0 l/m 1,00 h 0,00 h 159 W/m 0,1 km/h (0 Bft) 97,37 %
02.05.2016 08:00 5,5 C 8,8 C 6,1 C 96 % 2 lf 1024,9 hPa 0,0 l/m 1,00 h 0,00 h 322 W/m 3,6 km/h (1 Bft) 95,37 %
02.05.2016 09:00 9,6 C 18,2 C 11,1 C 90 % 0 lf 1024,6 hPa 0,0 l/m 1,00 h 0,00 h 495 W/m 7,1 km/h (2 Bft) 95,23 %
02.05.2016 10:00 14,2 C 22,5 C 20,5 C 72 % 0 lf 1024,3 hPa 0,0 l/m 1,00 h 0,00 h 646 W/m 6,9 km/h (2 Bft) 97,15 %
02.05.2016 11:00 16,9 C 24,9 C 21,4 C 65 % 0 lf 1023,7 hPa 0,0 l/m 1,00 h 0,00 h 743 W/m 8,7 km/h (2 Bft) 97,38 %
02.05.2016 12:00 18,9 C 26,2 C 22,8 C 59 % 0 lf 1023,1 hPa 0,0 l/m 0,83 h 0,00 h 693 W/m 10,3 km/h (2 Bft) 94,30 %
02.05.2016 13:00 20,3 C 27,5 C 19,7 C 52 % 0 lf 1022,3 hPa 0,0 l/m 0,73 h 0,00 h 744 W/m 13,5 km/h (3 Bft) 97,15 %
02.05.2016 14:00 21,4 C 28,7 C 19,2 C 47 % 0 lf 1021,5 hPa 0,0 l/m 1,00 h 0,00 h 841 W/m 15,1 km/h (3 Bft) 97,94 %
02.05.2016 15:00 21,8 C 28,4 C 19,3 C 47 % 0 lf 1020,9 hPa 0,0 l/m 1,00 h 0,00 h 759 W/m 14,1 km/h (3 Bft) 94,52 %
02.05.2016 16:00 21,8 C 26,9 C 19,7 C 48 % 0 lf 1020,3 hPa 0,0 l/m 1,00 h 0,00 h 598 W/m 12,8 km/h (3 Bft) 96,38 %
02.05.2016 17:00 20,7 C 22,7 C 16,6 C 51 % 0 lf 1019,5 hPa 0,0 l/m 1,00 h 0,00 h 349 W/m 14,6 km/h (3 Bft) 97,11 %
02.05.2016 18:00 19,1 C 19,6 C 15,8 C 53 % 0 lf 1018,9 hPa 0,0 l/m 0,57 h 0,00 h 192 W/m 8,5 km/h (2 Bft) 95,38 %
02.05.2016 19:00 18,5 C 18,3 C 15,2 C 57 % 0 lf 1018,6 hPa 0,0 l/m 0,00 h 0,00 h 91 W/m 7,7 km/h (2 Bft) 95,08 %
02.05.2016 20:00 17,3 C 16,1 C 13,6 C 61 % 0 lf 1018,6 hPa 0,0 l/m 0,00 h 0,00 h 23 W/m 7,0 km/h (2 Bft) 99,18 %
02.05.2016 21:00 15,6 C 14,0 C 11,7 C 64 % 0 lf 1018,6 hPa 0,0 l/m 0,00 h 0,00 h 6 W/m 6,2 km/h (2 Bft) 94,44 %
02.05.2016 22:00 13,9 C 12,5 C 10,7 C 69 % 0 lf 1018,6 hPa 0,0 l/m 0,00 h 0,00 h 0 W/m 7,0 km/h (2 Bft) 95,89 %
02.05.2016 23:00 12,8 C 12,2 C 10,0 C 72 % 0 lf 1018,3 hPa 0,0 l/m 0,00 h 0,00 h 0 W/m 5,1 km/h (1 Bft) 97,93 %
03.05.2016 00:00 12,1 C 11,9 C 10,0 C 71 % 0 lf 1018,3 hPa 0,0 l/m 0,00 h 0,00 h 0 W/m 6,5 km/h (2 Bft) 91,88 %
03.05.2016 01:00 11,8 C 11,7 C 9,5 C 71 % 0 lf 1018,2 hPa 0,0 l/m 0,00 h 0,00 h 0 W/m 4,7 km/h (1 Bft) 95,98 %
03.05.2016 02:00 11,7 C 11,7 C 9,9 C 76 % 0 lf 1017,8 hPa 0,0 l/m 0,00 h 0,00 h 0 W/m 7,5 km/h (2 Bft) 97,63 %
03.05.2016 03:00 11,7 C 10,8 C 9,3 C 81 % 11 lf 1017,4 hPa 0,0 l/m 0,00 h 0,70 h 0 W/m 9,2 km/h (2 Bft) 94,30 %
03.05.2016 04:00 11,4 C 10,2 C 8,9 C 87 % 15 lf 1017,3 hPa 0,0 l/m 0,00 h 0,47 h 0 W/m 10,3 km/h (2 Bft) 98,39 %
03.05.2016 05:00 11,1 C 10,1 C 9,0 C 91 % 15 lf 1017,2 hPa 1,8 l/m 0,00 h 1,00 h 0 W/m 15,8 km/h (3 Bft) 96,29 %
03.05.2016 06:00 9,9 C 8,9 C 7,9 C 93 % 15 lf 1018,1 hPa 0,2 l/m 0,00 h 0,30 h 13 W/m 19,6 km/h (3 Bft) 94,09 %
03.05.2016 07:00 9,3 C 9,1 C 7,9 C 94 % 15 lf 1019,0 hPa 0,0 l/m 0,03 h 0,00 h 51 W/m 15,6 km/h (3 Bft) 97,71 %
03.05.2016 08:00 9,5 C 10,7 C 8,4 C 95 % 15 lf 1019,8 hPa 0,0 l/m 0,43 h 0,00 h 223 W/m 16,5 km/h (3 Bft) 96,79 %
03.05.2016 09:00 10,6 C 14,5 C 9,8 C 93 % 2 lf 1020,5 hPa 0,0 l/m 0,40 h 0,00 h 329 W/m 16,4 km/h (3 Bft) 95,46 %
03.05.2016 10:00 12,7 C 19,7 C 15,4 C 82 % 0 lf 1020,9 hPa 0,0 l/m 0,73 h 0,00 h 607 W/m 22,5 km/h (4 Bft) 96,25 %
03.05.2016 11:00 14,5 C 22,3 C 17,2 C 70 % 0 lf 1021,4 hPa 0,0 l/m 0,87 h 0,00 h 723 W/m 25,3 km/h (4 Bft) 95,64 %
03.05.2016 12:00 15,1 C 22,2 C 17,5 C 62 % 0 lf 1021,8 hPa 0,0 l/m 0,80 h 0,00 h 781 W/m 28,7 km/h (4 Bft) 96,53 %
03.05.2016 13:00 15,9 C 23,5 C 15,3 C 58 % 0 lf 1022,3 hPa 0,0 l/m 0,93 h 0,00 h 905 W/m 27,6 km/h (4 Bft) 95,86 %
03.05.2016 14:00 16,2 C 22,4 C 14,8 C 54 % 0 lf 1022,6 hPa 0,0 l/m 0,90 h 0,00 h 819 W/m 26,4 km/h (4 Bft) 97,03 %
03.05.2016 15:00 16,6 C 22,7 C 15,1 C 49 % 0 lf 1023,0 hPa 0,0 l/m 0,80 h 0,00 h 707 W/m 26,0 km/h (4 Bft) 95,68 %
03.05.2016 16:00 16,1 C 22,1 C 16,1 C 50 % 0 lf 1023,3 hPa 0,0 l/m 0,90 h 0,00 h 682 W/m 25,0 km/h (4 Bft) 97,29 %
03.05.2016 17:00 15,8 C 18,3 C 13,6 C 48 % 0 lf 1023,5 hPa 0,0 l/m 0,87 h 0,00 h 453 W/m 25,2 km/h (4 Bft) 95,69 %
03.05.2016 18:00 14,4 C 15,0 C 12,5 C 50 % 0 lf 1023,8 hPa 0,0 l/m 0,93 h 0,00 h 328 W/m 21,9 km/h (4 Bft) 95,86 %
03.05.2016 19:00 13,9 C 13,9 C 12,0 C 52 % 0 lf 1024,2 hPa 0,0 l/m 0,97 h 0,00 h 164 W/m 20,9 km/h (4 Bft) 97,51 %
03.05.2016 20:00 12,7 C 11,8 C 10,3 C 56 % 0 lf 1024,9 hPa 0,0 l/m 0,07 h 0,00 h 28 W/m 15,4 km/h (3 Bft) 95,10 %
03.05.2016 21:00 11,0 C 9,7 C 8,6 C 62 % 0 lf 1025,8 hPa 0,0 l/m 0,00 h 0,00 h 4 W/m 11,8 km/h (2 Bft) 97,92 %
03.05.2016 22:00 9,7 C 8,0 C 6,9 C 68 % 0 lf 1026,6 hPa 0,0 l/m 0,00 h 0,00 h 0 W/m 8,5 km/h (2 Bft) 96,67 %
03.05.2016 23:00 8,2 C 6,1 C 5,2 C 72 % 0 lf 1027,0 hPa 0,0 l/m 0,00 h 0,00 h 0 W/m 4,6 km/h (1 Bft) 93,43 %
04.05.2016 00:00 6,9 C 4,9 C 4,3 C 76 % 0 lf 1027,3 hPa 0,0 l/m 0,00 h 0,00 h 0 W/m 2,5 km/h (1 Bft) 98,02 %
04.05.2016 01:00 6,0 C 4,1 C 3,8 C 80 % 0 lf 1027,6 hPa 0,0 l/m 0,00 h 0,00 h 0 W/m 1,9 km/h (1 Bft) 97,08 %
04.05.2016 02:00 5,2 C 3,4 C 3,1 C 83 % 0 lf 1027,6 hPa 0,0 l/m 0,00 h 0,00 h 0 W/m 0,1 km/h (0 Bft) 96,99 %
04.05.2016 03:00 4,5 C 3,0 C 2,7 C 85 % 1 lf 1027,8 hPa 0,0 l/m 0,00 h 0,00 h 0 W/m 0,0 km/h (0 Bft) 96,20 %
04.05.2016 04:00 3,9 C 2,2 C 2,2 C 87 % 1 lf 1028,0 hPa 0,0 l/m 0,00 h 0,00 h 0 W/m 0,0 km/h (0 Bft) 95,59 %
04.05.2016 05:00 3,3 C 1,6 C 1,7 C 89 % 5 lf 1028,3 hPa 0,0 l/m 0,00 h 0,00 h 5 W/m 0,0 km/h (0 Bft) 95,98 %
04.05.2016 06:00 2,7 C 1,6 C 1,7 C 89 % 14 lf 1028,6 hPa 0,0 l/m 0,40 h 0,00 h 37 W/m 0,0 km/h (0 Bft) 95,13 %
04.05.2016 07:00 3,2 C 4,0 C 3,0 C 92 % 15 lf 1028,9 hPa 0,0 l/m 1,00 h 0,00 h 186 W/m 0,0 km/h (0 Bft) 98,31 %
04.05.2016 08:00 5,5 C 9,0 C 6,0 C 95 % 2 lf 1029,1 hPa 0,0 l/m 1,00 h 0,00 h 360 W/m 3,8 km/h (1 Bft) 97,29 %
04.05.2016 09:00 9,7 C 18,3 C 10,6 C 84 % 0 lf 1029,2 hPa 0,0 l/m 1,00 h 0,00 h 527 W/m 10,2 km/h (2 Bft) 92,94 %
04.05.2016 10:00 13,1 C 20,9 C 18,4 C 63 % 0 lf 1029,1 hPa 0,0 l/m 1,00 h 0,00 h 687 W/m 12,5 km/h (3 Bft) 99,00 %
04.05.2016 11:00 14,2 C 21,4 C 18,2 C 56 % 0 lf 1029,0 hPa 0,0 l/m 0,97 h 0,00 h 783 W/m 14,3 km/h (3 Bft) 96,62 %
04.05.2016 12:00 15,1 C 22,4 C 18,2 C 52 % 0 lf 1028,8 hPa 0,0 l/m 0,83 h 0,00 h 720 W/m 14,0 km/h (3 Bft) 93,19 %
04.05.2016 13:00 15,8 C 23,3 C 14,9 C 51 % 0 lf 1028,5 hPa 0,0 l/m 0,80 h 0,00 h 703 W/m 11,0 km/h (2 Bft) 98,61 %
04.05.2016 14:00 15,8 C 23,2 C 14,6 C 49 % 0 lf 1028,2 hPa 0,0 l/m 0,80 h 0,00 h 759 W/m 12,4 km/h (3 Bft) 94,83 %
04.05.2016 15:00 16,1 C 22,0 C 15,1 C 46 % 0 lf 1027,7 hPa 0,0 l/m 0,68 h 0,00 h 593 W/m 13,3 km/h (3 Bft) 96,08 %
04.05.2016 16:00 16,9 C 21,3 C 16,6 C 43 % 0 lf 1027,3 hPa 0,0 l/m 0,93 h 0,00 h 614 W/m 13,9 km/h (3 Bft) 96,00 %
04.05.2016 17:00 16,3 C 19,6 C 14,3 C 43 % 0 lf 1026,9 hPa 0,0 l/m 0,87 h 0,00 h 495 W/m 14,1 km/h (3 Bft) 97,08 %
04.05.2016 18:00 15,8 C 16,4 C 13,8 C 43 % 0 lf 1026,7 hPa 0,0 l/m 1,00 h 0,00 h 307 W/m 13,8 km/h (3 Bft) 98,31 %
04.05.2016 19:00 15,1 C 15,1 C 13,1 C 45 % 0 lf 1026,4 hPa 0,0 l/m 1,00 h 0,00 h 153 W/m 13,6 km/h (3 Bft) 94,21 %
04.05.2016 20:00 14,2 C 13,0 C 11,1 C 47 % 0 lf 1026,2 hPa 0,0 l/m 0,07 h 0,00 h 29 W/m 8,7 km/h (2 Bft) 97,49 %
04.05.2016 21:00 12,5 C 11,4 C 9,0 C 51 % 0 lf 1026,3 hPa 0,0 l/m 0,00 h 0,00 h 4 W/m 9,3 km/h (2 Bft) 95,13 %
04.05.2016 22:00 11,5 C 11,2 C 9,0 C 55 % 0 lf 1026,5 hPa 0,0 l/m 0,00 h 0,00 h 0 W/m 11,9 km/h (2 Bft) 95,87 %
04.05.2016 23:00 10,4 C 8,3 C 6,8 C 59 % 0 lf 1026,4 hPa 0,0 l/m 0,00 h 0,00 h 0 W/m 4,5 km/h (1 Bft) 97,94 %
05.05.2016 00:00 8,7 C 7,5 C 5,8 C 66 % 0 lf 1026,3 hPa 0,0 l/m 0,00 h 0,00 h 0 W/m 6,4 km/h (2 Bft) 96,52 %
05.05.2016 01:00 8,0 C 7,5 C 5,4 C 70 % 0 lf 1026,2 hPa 0,0 l/m 0,00 h 0,00 h 0 W/m 6,8 km/h (2 Bft) 94,30 %
05.05.2016 02:00 7,5 C 7,6 C 5,4 C 71 % 0 lf 1026,1 hPa 0,0 l/m 0,00 h 0,00 h 0 W/m 8,5 km/h (2 Bft) 98,01 %
05.05.2016 03:00 7,3 C 6,7 C 4,8 C 71 % 0 lf 1026,0 hPa 0,0 l/m 0,00 h 0,00 h 0 W/m 6,4 km/h (2 Bft) 96,03 %
05.05.2016 04:00 6,5 C 6,1 C 4,2 C 73 % 0 lf 1026,0 hPa 0,0 l/m 0,00 h 0,00 h 0 W/m 7,2 km/h (2 Bft) 96,83 %
05.05.2016 05:00 5,9 C 5,6 C 3,9 C 75 % 0 lf 1025,9 hPa 0,0 l/m 0,00 h 0,00 h 6 W/m 7,2 km/h (2 Bft) 94,94 %
05.05.2016 06:00 5,3 C 5,3 C 3,6 C 77 % 0 lf 1025,8 hPa 0,0 l/m 0,50 h 0,00 h 40 W/m 6,4 km/h (2 Bft) 96,66 %
05.05.2016 07:00 6,0 C 7,1 C 5,4 C 77 % 0 lf 1025,9 hPa 0,0 l/m 0,97 h 0,00 h 195 W/m 9,4 km/h (2 Bft) 96,27 %
05.05.2016 08:00 8,6 C 10,9 C 7,9 C 71 % 0 lf 1025,7 hPa 0,0 l/m 1,00 h 0,00 h 381 W/m 16,1 km/h (3 Bft) 96,34 %
05.05.2016 09:00 12,2 C 19,0 C 12,2 C 61 % 0 lf 1025,4 hPa 0,0 l/m 1,00 h 0,00 h 553 W/m 17,9 km/h (3 Bft) 95,82 %
05.05.2016 10:00 15,3 C 20,6 C 21,0 C 52 % 0 lf 1025,0 hPa 0,0 l/m 1,00 h 0,00 h 689 W/m 20,1 km/h (4 Bft) 97,29 %
05.05.2016 11:00 16,7 C 22,2 C 21,1 C 47 % 0 lf 1024,5 hPa 0,0 l/m 0,97 h 0,00 h 756 W/m 21,8 km/h (4 Bft) 95,86 %
05.05.2016 12:00 18,0 C 22,8 C 21,9 C 43 % 0 lf 1023,7 hPa 0,0 l/m 0,95 h 0,00 h 789 W/m 23,8 km/h (4 Bft) 95,37 %
05.05.2016 13:00 19,0 C 24,4 C 18,8 C 47 % 0 lf 1022,9 hPa 0,0 l/m 1,00 h 0,00 h 881 W/m 24,4 km/h (4 Bft) 97,23 %
05.05.2016 14:00 20,0 C 24,7 C 18,7 C 46 % 0 lf 1022,1 hPa 0,0 l/m 1,00 h 0,00 h 856 W/m 24,5 km/h (4 Bft) 97,87 %
05.05.2016 15:00 20,7 C 25,3 C 19,3 C 45 % 0 lf 1021,2 hPa 0,0 l/m 1,00 h 0,00 h 781 W/m 24,2 km/h (4 Bft) 93,31 %
05.05.2016 16:00 21,4 C 25,8 C 21,5 C 44 % 0 lf 1020,3 hPa 0,0 l/m 1,00 h 0,00 h 665 W/m 20,4 km/h (4 Bft) 97,93 %
05.05.2016 17:00 21,6 C 23,9 C 19,1 C 44 % 0 lf 1019,4 hPa 0,0 l/m 1,00 h 0,00 h 518 W/m 20,6 km/h (4 Bft) 97,65 %
05.05.2016 18:00 20,7 C 20,9 C 18,3 C 45 % 0 lf 1018,8 hPa 0,0 l/m 1,00 h 0,00 h 348 W/m 19,1 km/h (3 Bft) 93,02 %
05.05.2016 19:00 20,2 C 20,2 C 17,8 C 47 % 0 lf 1018,3 hPa 0,0 l/m 1,00 h 0,00 h 159 W/m 17,4 km/h (3 Bft) 97,94 %
05.05.2016 20:00 19,4 C 18,7 C 16,3 C 49 % 0 lf 1018,0 hPa 0,0 l/m 0,10 h 0,00 h 29 W/m 12,3 km/h (3 Bft) 95,73 %
05.05.2016 21:00 17,7 C 15,7 C 12,7 C 55 % 0 lf 1017,9 hPa 0,0 l/m 0,00 h 0,00 h 4 W/m 5,7 km/h (1 Bft) 96,30 %
05.05.2016 22:00 15,3 C 12,8 C 10,8 C 63 % 0 lf 1017,8 hPa 0,0 l/m 0,00 h 0,00 h 0 W/m 4,0 km/h (1 Bft) 95,73 %
05.05.2016 23:00 13,2 C 11,1 C 9,6 C 70 % 0 lf 1017,5 hPa 0,0 l/m 0,00 h 0,00 h 0 W/m 2,8 km/h (1 Bft) 96,09 %
06.05.2016 00:00 11,6 C 9,9 C 8,6 C 75 % 0 lf 1017,2 hPa 0,0 l/m 0,00 h 0,00 h 0 W/m 2,3 km/h (1 Bft) 95,92 %
06.05.2016 01:00 10,4 C 8,8 C 7,9 C 79 % 0 lf 1017,2 hPa 0,0 l/m 0,00 h 0,00 h 0 W/m 0,6 km/h (0 Bft) 98,64 %
06.05.2016 02:00 9,5 C 7,7 C 7,0 C 82 % 0 lf 1017,1 hPa 0,0 l/m 0,00 h 0,00 h 0 W/m 0,0 km/h (0 Bft) 93,02 %
06.05.2016 03:00 8,6 C 7,3 C 6,7 C 84 % 0 lf 1016,7 hPa 0,0 l/m 0,00 h 0,00 h 0 W/m 0,0 km/h (0 Bft) 96,58 %
06.05.2016 04:00 8,0 C 6,9 C 6,1 C 86 % 1 lf 1016,4 hPa 0,0 l/m 0,00 h 0,00 h 0 W/m 0,0 km/h (0 Bft) 98,72 %
06.05.2016 05:00 7,4 C 6,4 C 5,6 C 88 % 1 lf 1015,8 hPa 0,0 l/m 0,00 h 0,00 h 5 W/m 3,2 km/h (1 Bft) 95,01 %
06.05.2016 06:00 7,2 C 7,2 C 5,9 C 90 % 1 lf 1015,3 hPa 0,0 l/m 0,30 h 0,00 h 35 W/m 6,2 km/h (2 Bft) 98,01 %
06.05.2016 07:00 7,7 C 9,0 C 7,1 C 92 % 0 lf 1015,3 hPa 0,0 l/m 1,00 h 0,00 h 194 W/m 3,9 km/h (1 Bft) 94,17 %
06.05.2016 08:00 11,4 C 15,0 C 11,6 C 89 % 0 lf 1014,8 hPa 0,0 l/m 1,00 h 0,00 h 371 W/m 21,6 km/h (4 Bft) 96,86 %
06.05.2016 09:00 15,8 C 21,1 C 15,4 C 72 % 0 lf 1014,3 hPa 0,0 l/m 1,00 h 0,00 h 530 W/m 26,4 km/h (4 Bft) 96,79 %
06.05.2016 10:00 18,0 C 22,8 C 22,7 C 66 % 0 lf 1013,9 hPa 0,0 l/m 1,00 h 0,00 h 664 W/m 24,8 km/h (4 Bft) 96,94 %
06.05.2016 11:00 20,2 C 26,1 C 24,6 C 60 % 0 lf 1013,5 hPa 0,0 l/m 1,00 h 0,00 h 725 W/m 24,5 km/h (4 Bft) 95,02 %
06.05.2016 12:00 22,0 C 26,9 C 25,7 C 55 % 0 lf 1012,9 hPa 0,0 l/m 0,93 h 0,00 h 785 W/m 23,6 km/h (4 Bft) 98,29 %
06.05.2016 13:00 23,4 C 27,7 C 23,1 C 50 % 0 lf 1012,3 hPa 0,0 l/m 1,00 h 0,00 h 829 W/m 27,3 km/h (4 Bft) 97,00 %
06.05.2016 14:00 23,9 C 27,4 C 22,9 C 48 % 0 lf 1011,9 hPa 0,0 l/m 0,98 h 0,00 h 768 W/m 28,1 km/h (4 Bft) 94,19 %
06.05.2016 15:00 24,5 C 28,1 C 23,5 C 50 % 0 lf 1011,3 hPa 0,0 l/m 1,00 h 0,00 h 640 W/m 23,7 km/h (4 Bft) 98,79 %
06.05.2016 16:00 25,5 C 28,5 C 25,5 C 47 % 0 lf 1010,6 hPa 0,0 l/m 1,00 h 0,00 h 599 W/m 28,9 km/h (5 Bft) 95,59 %
06.05.2016 17:00 25,2 C 27,0 C 23,7 C 46 % 0 lf 1010,1 hPa 0,0 l/m 1,00 h 0,00 h 488 W/m 27,1 km/h (4 Bft) 94,66 %
06.05.2016 18:00 24,6 C 24,9 C 22,6 C 46 % 0 lf 1010,0 hPa 0,0 l/m 1,00 h 0,00 h 277 W/m 25,0 km/h (4 Bft) 97,04 %
06.05.2016 19:00 23,7 C 23,5 C 21,5 C 49 % 0 lf 1009,9 hPa 0,0 l/m 1,00 h 0,00 h 128 W/m 19,5 km/h (3 Bft) 97,08 %
06.05.2016 20:00 22,4 C 21,6 C 19,2 C 52 % 0 lf 1010,1 hPa 0,0 l/m 0,00 h 0,00 h 33 W/m 11,5 km/h (2 Bft) 93,95 %
06.05.2016 21:00 20,7 C 19,4 C 16,5 C 56 % 0 lf 1010,5 hPa 0,0 l/m 0,00 h 0,00 h 4 W/m 8,3 km/h (2 Bft) 97,90 %
06.05.2016 22:00 18,9 C 18,1 C 15,0 C 61 % 0 lf 1010,7 hPa 0,0 l/m 0,00 h 0,00 h 0 W/m 9,4 km/h (2 Bft) 96,28 %
06.05.2016 23:00 17,9 C 17,3 C 14,6 C 63 % 0 lf 1010,8 hPa 0,0 l/m 0,00 h 0,00 h 0 W/m 10,6 km/h (2 Bft) 96,36 %
07.05.2016 00:00 16,6 C 15,7 C 13,1 C 66 % 0 lf 1011,0 hPa 0,0 l/m 0,00 h 0,00 h 0 W/m 7,6 km/h (2 Bft) 91,61 %
07.05.2016 01:00 15,3 C 14,6 C 12,2 C 69 % 0 lf 1011,0 hPa 0,0 l/m 0,00 h 0,00 h 0 W/m 8,0 km/h (2 Bft) 98,01 %
07.05.2016 02:00 14,4 C 13,7 C 11,4 C 70 % 0 lf 1010,9 hPa 0,0 l/m 0,00 h 0,00 h 0 W/m 6,1 km/h (2 Bft) 95,47 %
07.05.2016 03:00 13,3 C 12,8 C 10,6 C 73 % 0 lf 1010,7 hPa 0,0 l/m 0,00 h 0,00 h 0 W/m 6,2 km/h (2 Bft) 96,04 %
07.05.2016 04:00 12,6 C 11,7 C 9,6 C 74 % 0 lf 1010,6 hPa 0,0 l/m 0,00 h 0,00 h 0 W/m 4,7 km/h (1 Bft) 95,68 %
07.05.2016 05:00 11,6 C 11,3 C 8,9 C 77 % 0 lf 1010,4 hPa 0,0 l/m 0,00 h 0,00 h 6 W/m 6,4 km/h (2 Bft) 96,73 %
07.05.2016 06:00 11,4 C 11,9 C 9,7 C 80 % 0 lf 1010,5 hPa 0,0 l/m 0,50 h 0,00 h 41 W/m 9,3 km/h (2 Bft) 95,59 %
07.05.2016 07:00 12,1 C 13,3 C 11,1 C 80 % 0 lf 1010,6 hPa 0,0 l/m 1,00 h 0,00 h 194 W/m 9,9 km/h (2 Bft) 96,01 %
07.05.2016 08:00 14,7 C 17,5 C 14,0 C 74 % 0 lf 1010,9 hPa 0,0 l/m 1,00 h 0,00 h 369 W/m 15,4 km/h (3 Bft) 95,16 %
07.05.2016 09:00 18,7 C 25,3 C 18,3 C 63 % 0 lf 1011,0 hPa 0,0 l/m 1,00 h 0,00 h 538 W/m 20,7 km/h (4 Bft) 96,80 %
07.05.2016 10:00 22,2 C 28,3 C 27,3 C 54 % 0 lf 1010,8 hPa 0,0 l/m 1,00 h 0,00 h 682 W/m 20,0 km/h (4 Bft) 96,22 %
07.05.2016 11:00 24,1 C 29,2 C 28,5 C 49 % 0 lf 1010,5 hPa 0,0 l/m 0,97 h 0,00 h 727 W/m 20,6 km/h (4 Bft) 95,80 %
07.05.2016 12:00 26,2 C 31,8 C 30,2 C 41 % 0 lf 1010,1 hPa 0,0 l/m 1,00 h 0,00 h 870 W/m 23,4 km/h (4 Bft) 96,73 %
07.05.2016 13:00 27,3 C 32,5 C 26,3 C 37 % 0 lf 1009,7 hPa 0,0 l/m 1,00 h 0,00 h 888 W/m 23,4 km/h (4 Bft) 98,08 %
07.05.2016 14:00 27,4 C 31,5 C 25,6 C 37 % 0 lf 1009,4 hPa 0,0 l/m 1,00 h 0,00 h 858 W/m 22,2 km/h (4 Bft) 92,02 %
07.05.2016 15:00 27,7 C 31,8 C 25,9 C 37 % 0 lf 1009,1 hPa 0,0 l/m 1,00 h 0,00 h 802 W/m 22,4 km/h (4 Bft) 98,36 %
07.05.2016 16:00 27,4 C 30,5 C 26,8 C 37 % 0 lf 1008,6 hPa 0,0 l/m 0,97 h 0,00 h 643 W/m 22,5 km/h (4 Bft) 97,15 %
07.05.2016 17:00 27,1 C 29,0 C 25,3 C 37 % 0 lf 1008,2 hPa 0,0 l/m 1,00 h 0,00 h 555 W/m 23,6 km/h (4 Bft) 94,44 %
07.05.2016 18:00 26,2 C 26,4 C 23,9 C 39 % 0 lf 1008,0 hPa 0,0 l/m 1,00 h 0,00 h 350 W/m 18,8 km/h (3 Bft) 96,38 %
07.05.2016 19:00 25,4 C 25,2 C 22,3 C 41 % 0 lf 1007,9 hPa 0,0 l/m 0,93 h 0,00 h 152 W/m 11,4 km/h (2 Bft) 97,37 %
07.05.2016 20:00 24,2 C 23,1 C 18,9 C 45 % 0 lf 1008,1 hPa 0,0 l/m 0,07 h 0,00 h 33 W/m 6,9 km/h (2 Bft) 94,71 %
07.05.2016 21:00 22,1 C 19,8 C 16,3 C 50 % 0 lf 1008,5 hPa 0,0 l/m 0,00 h 0,00 h 6 W/m 4,8 km/h (1 Bft) 96,37 %
07.05.2016 22:00 19,5 C 18,2 C 14,9 C 57 % 0 lf 1008,7 hPa 0,0 l/m 0,00 h 0,00 h 0 W/m 7,0 km/h (2 Bft) 95,80 %
07.05.2016 23:00 18,3 C 17,8 C 14,2 C 58 % 0 lf 1009,1 hPa 0,0 l/m 0,00 h 0,00 h 0 W/m 7,1 km/h (2 Bft) 96,58 %
08.05.2016 00:00 18,0 C 18,3 C 15,3 C 57 % 0 lf 1009,5 hPa 0,0 l/m 0,00 h 0,00 h 0 W/m 15,0 km/h (3 Bft) 95,91 %
08.05.2016 01:00 17,8 C 17,1 C 14,4 C 57 % 0 lf 1009,9 hPa 0,0 l/m 0,00 h 0,00 h 0 W/m 10,5 km/h (2 Bft) 95,31 %
08.05.2016 02:00 16,8 C 16,5 C 14,3 C 59 % 0 lf 1010,2 hPa 0,0 l/m 0,00 h 0,00 h 0 W/m 12,2 km/h (2 Bft) 97,01 %
08.05.2016 03:00 16,0 C 15,1 C 12,8 C 60 % 0 lf 1010,2 hPa 0,0 l/m 0,00 h 0,00 h 0 W/m 8,5 km/h (2 Bft) 97,22 %
08.05.2016 04:00 14,7 C 13,7 C 11,1 C 64 % 0 lf 1010,2 hPa 0,0 l/m 0,00 h 0,00 h 0 W/m 6,1 km/h (2 Bft) 94,16 %
08.05.2016 05:00 13,9 C 13,8 C 11,5 C 67 % 0 lf 1010,2 hPa 0,0 l/m 0,00 h 0,00 h 6 W/m 8,8 km/h (2 Bft) 96,22 %
08.05.2016 06:00 13,5 C 13,2 C 10,7 C 68 % 0 lf 1010,5 hPa 0,0 l/m 0,70 h 0,00 h 45 W/m 5,7 km/h (1 Bft) 97,23 %
08.05.2016 07:00 13,5 C 14,9 C 11,9 C 71 % 0 lf 1010,9 hPa 0,0 l/m 1,00 h 0,00 h 194 W/m 7,8 km/h (2 Bft) 96,87 %
08.05.2016 08:00 16,1 C 18,8 C 15,2 C 65 % 0 lf 1011,2 hPa 0,0 l/m 1,00 h 0,00 h 376 W/m 17,8 km/h (3 Bft) 93,80 %
08.05.2016 09:00 19,7 C 25,1 C 18,9 C 55 % 0 lf 1011,4 hPa 0,0 l/m 1,00 h 0,00 h 544 W/m 24,5 km/h (4 Bft) 96,16 %
08.05.2016 10:00 22,5 C 27,7 C 27,4 C 48 % 0 lf 1011,3 hPa 0,0 l/m 1,00 h 0,00 h 688 W/m 28,3 km/h (4 Bft) 98,22 %
08.05.2016 11:00 24,4 C 29,4 C 28,3 C 45 % 0 lf 1011,1 hPa 0,0 l/m 0,97 h 0,00 h 764 W/m 30,3 km/h (5 Bft) 95,02 %
08.05.2016 12:00 25,5 C 30,1 C 29,0 C 40 % 0 lf 1011,0 hPa 0,0 l/m 0,97 h 0,00 h 830 W/m 31,5 km/h (5 Bft) 95,65 %
08.05.2016 13:00 26,4 C 31,4 C 25,8 C 37 % 0 lf 1010,8 hPa 0,0 l/m 1,00 h 0,00 h 895 W/m 27,2 km/h (4 Bft) 97,72 %
08.05.2016 14:00 27,1 C 31,2 C 25,3 C 34 % 0 lf 1010,4 hPa 0,0 l/m 1,00 h 0,00 h 866 W/m 26,4 km/h (4 Bft) 96,80 %
08.05.2016 15:00 27,2 C 31,2 C 25,5 C 33 % 0 lf 1010,0 hPa 0,0 l/m 1,00 h 0,00 h 793 W/m 25,7 km/h (4 Bft) 93,67 %
08.05.2016 16:00 27,2 C 30,6 C 26,8 C 33 % 0 lf 1009,7 hPa 0,0 l/m 1,00 h 0,00 h 669 W/m 26,0 km/h (4 Bft) 98,79 %
08.05.2016 17:00 26,9 C 28,8 C 24,4 C 34 % 0 lf 1009,5 hPa 0,0 l/m 1,00 h 0,00 h 521 W/m 28,5 km/h (4 Bft) 95,59 %
08.05.2016 18:00 26,1 C 26,3 C 23,7 C 34 % 0 lf 1009,3 hPa 0,0 l/m 1,00 h 0,00 h 358 W/m 27,2 km/h (4 Bft) 94,52 %
08.05.2016 19:00 25,4 C 25,0 C 22,5 C 36 % 0 lf 1009,3 hPa 0,0 l/m 1,00 h 0,00 h 172 W/m 16,7 km/h (3 Bft) 96,94 %
08.05.2016 20:00 24,1 C 23,1 C 20,2 C 39 % 0 lf 1009,7 hPa 0,0 l/m 0,10 h 0,00 h 34 W/m 12,1 km/h (2 Bft) 97,01 %
08.05.2016 21:00 22,1 C 20,6 C 17,4 C 43 % 0 lf 1010,3 hPa 0,0 l/m 0,00 h 0,00 h 7 W/m 7,8 km/h (2 Bft) 94,23 %
08.05.2016 22:00 20,3 C 19,5 C 16,9 C 49 % 0 lf 1010,9 hPa 0,0 l/m 0,00 h 0,00 h 0 W/m 12,5 km/h (3 Bft) 96,80 %
08.05.2016 23:00 19,6 C 18,9 C 16,7 C 57 % 0 lf 1011,3 hPa 0,0 l/m 0,00 h 0,00 h 0 W/m 13,3 km/h (3 Bft) 96,45 %
Min-Datum _ 04.05.16 04.05.16 04.05.16 08.05.16 02.05.16 07.05.16 - - - - 02.05.16 03.05.16
_ Min-Zeit 06:30 05:38 06:26 14:58 00:00 18:26 - - - - 00:00 00:02
Minimum _ 2,6 C 1,1 C 1,1 C 31 % 0 lf 1007,9 hPa - - - - 0,0 km/h (0 Bft) 16,67 %
Max-Datum _ 07.05.16 07.05.16 07.05.16 02.05.16 02.05.16 04.05.16 03.05.16 02.05.16 03.05.16 03.05.16 03.05.16 02.05.16
_ Max-Zeit 15:16 15:12 12:30 08:26 05:50 09:28 05:30 06:44 03:08 13:58 12:00 01:00
Maximum _ 27,9 C 34,4 C 31,7 C 96 % 15 lf 1029,3 hPa 1,8 l/m 0,03 h 0,03 h 1085 W/m 50,2 km/h
NW (7 Bft)
100,00 %
Durchschnitt _ 15,4 C 17,1 C 14,2 C 62 % 1 lf 1018,3 hPa #2,0 l/m #87:15 h #2:28 h 429 W/m 13,1 km/h (3 Bft) 96,20 %
© 2016 W. Hausmann